CheckWX is a tool to help pilots better visualize weather data.  It is not intended as a substitute for an official pre-flight weather briefing.

06:45:24 UTC

3S8 METAR
Grants Pass Airport
Grants Pass, Oregon, USA
Current

30 mins ago

K3S8 160615Z AUTO 34006KT 10SM CLR 23/05 A2997 RMK AO2 PWINO
Observed
Jun-16 @ 06:15 UTC
Wind
  • 340° at 6 KTS
Visibility
10 SM
Flight Rules
VFR
Cloud Levels
  • Clear skies
Temperature
23°C / 73°F
Dewpoint
C / 41°F
Humidity
31%
Altimeter
29.97" Hg
Pressure
1014.92 hPa
Previous

50 mins ago

K3S8 160555Z AUTO 34005KT 10SM CLR 23/05 A2997 RMK AO2 PWINO
Observed
Jun-16 @ 05:55 UTC
Wind
  • 340° at 5 KTS
Visibility
10 SM
Flight Rules
VFR
Cloud Levels
  • Clear skies
Temperature
23°C / 73°F
Dewpoint
C / 41°F
Humidity
31%
Altimeter
29.97" Hg
Pressure
1014.92 hPa
Previous

1 hour ago

K3S8 160535Z AUTO 33006KT 10SM CLR 24/04 A2997 RMK AO2 PWINO
Observed
Jun-16 @ 05:35 UTC
Wind
  • 330° at 6 KTS
Visibility
10 SM
Flight Rules
VFR
Cloud Levels
  • Clear skies
Temperature
24°C / 75°F
Dewpoint
C / 39°F
Humidity
27%
Altimeter
29.97" Hg
Pressure
1014.92 hPa